Latest Weather Observations for Newman Airport

IDW60801

Issued at 9:02 pm WST Saturday 23 May 2015 (issued every 30 minutes, with the page automatically refreshed every 10 minutes)

About weather observations | Map of weather stations | Latest weather observations for WA | Other Formats
Station Details ID: 007176 Name: NEWMAN AERO Lat: -23.42 Lon: 119.80 Height: 524.0 m
Data from the previous 72 hours. | See also: Recent months at Newman Airport
Date/Time
WST
Temp
°C
App
Temp
°C
Dew
Point
Rel
Hum
%
Delta-T
°C
Wind Press
QNH
hPa
Press
MSL
hPa
Rain
since 9 am
mm
Dir
 
Spd
km/h
Gust
km/h
Spd
kts
Gust
kts
23/09:00pm 16.1 13.5 12.1 77 2.2 NNE 17 26 9 14 1019.8 1017.9 4.6
23/08:42pm 16.6 13.9 11.7 73 2.7 NNE 17 24 9 13 1020.0 1018.1 2.0
23/08:30pm 17.3 15.5 12.2 72 2.9 NE 13 20 7 11 1020.2 1018.3 0.2
23/08:00pm 17.4 15.3 12.3 72 2.9 NE 15 24 8 13 1019.6 1017.6 0.2
23/07:30pm 18.4 15.9 12.2 67 3.5 NNE 17 26 9 14 1019.0 1017.1 0.0
23/07:00pm 19.0 18.5 12.5 66 3.7 E 7 11 4 6 1018.4 1016.5 0.0
23/06:30pm 19.3 18.2 11.8 62 4.3 E 9 11 5 6 1018.2 1016.3 0.0
23/06:00pm 19.2 18.3 12.5 65 3.8 ESE 9 13 5 7 1018.1 1016.2 0.0
23/05:30pm 19.8 19.2 11.8 60 4.5 ENE 6 9 3 5 1018.1 1016.2 0.0
23/05:00pm 20.0 19.1 11.2 57 4.9 ENE 7 9 4 5 1018.0 1016.0 0.0
23/04:30pm 20.1 19.1 11.1 56 5.1 ENE 7 9 4 5 1017.9 1015.9 0.0
23/04:00pm 20.4 19.2 11.6 57 5.0 ENE 9 13 5 7 1017.7 1015.7 0.0
23/03:30pm 20.3 19.4 11.2 56 5.1 NE 7 11 4 6 1017.6 1015.6 0.0
23/03:00pm 20.3 19.0 11.2 56 5.1 NNE 9 11 5 6 1017.8 1015.8 0.0
23/02:30pm 20.1 18.0 11.1 56 5.1 NNE 13 19 7 10 1017.7 1015.7 0.0
23/02:00pm 20.2 18.3 11.7 58 4.8 NE 13 20 7 11 1017.6 1015.6 0.0
23/01:30pm 20.2 17.3 10.9 55 5.2 NNE 17 20 9 11 1017.9 1015.9 0.0
23/01:00pm 20.1 17.2 11.1 56 5.0 NE 17 24 9 13 1018.1 1016.2 0.0
23/12:30pm 20.0 17.0 10.7 55 5.2 NNE 17 24 9 13 1018.6 1016.7 0.0
23/12:00pm 19.6 16.1 10.3 55 5.1 NE 19 24 10 13 1019.0 1017.1 0.0
23/11:30am 19.6 16.3 10.9 57 4.9 ENE 19 26 10 14 1019.3 1017.4 0.0
23/11:00am 18.7 17.4 11.3 62 4.1 E 9 15 5 8 1020.0 1018.1 0.0
23/10:30am 18.0 17.3 12.0 68 3.4 SSE 7 11 4 6 1020.6 1018.7 0.0
23/10:00am 18.1 16.7 12.1 68 3.4 ENE 11 15 6 8 1020.5 1018.6 0.0
23/09:30am 18.0 16.2 12.0 68 3.4 ENE 13 17 7 9 1020.5 1018.6 0.0
23/09:00am 17.7 16.8 12.6 72 2.9 ENE 9 13 5 7 1020.6 1018.7 15.4
23/08:30am 17.3 15.8 13.0 76 2.5 ENE 13 15 7 8 1020.2 1018.3 15.4
23/08:00am 17.0 16.8 13.1 78 2.2 ENE 6 9 3 5 1020.5 1018.6 15.4
23/07:30am 16.7 16.4 12.8 78 2.2 ESE 6 9 3 5 1020.3 1018.4 15.4
23/07:00am 16.5 17.3 12.7 78 2.2 CALM 0 0 0 0 1020.2 1018.3 15.4
23/06:39am 16.5 15.7 12.8 79 2.1 WSW 9 13 5 7 1020.4 1018.5 15.2
23/06:30am 16.6 17.1 12.9 79 2.1 W 2 11 1 6 1020.4 1018.5 14.6
23/06:05am 16.6 17.5 12.9 79 2.1 CALM 0 0 0 0 1019.6 1017.6 13.0
23/06:00am 16.7 17.6 13.0 79 2.1 CALM 0 0 0 0 1019.6 1017.6 12.6
23/05:30am 16.6 17.5 12.9 79 2.1 CALM 0 6 0 3 1019.2 1017.3 12.4
23/05:01am 16.6 16.2 13.1 80 2.0 NNE 7 11 4 6 1018.9 1017.0 12.4
23/05:00am 16.6 16.2 13.1 80 2.0 NNE 7 11 4 6 1018.9 1017.0 12.4
23/04:35am 16.6 15.8 12.9 79 2.1 NNE 9 13 5 7 1018.9 1017.0 12.2
23/04:30am 16.6 15.8 12.9 79 2.1 NNE 9 13 5 7 1018.9 1017.0 12.2
23/04:00am 16.7 15.6 13.0 79 2.1 N 11 15 6 8 1019.0 1017.1 12.0
23/03:30am 16.8 15.7 13.1 79 2.1 N 11 15 6 8 1018.9 1017.0 11.8
23/03:00am 16.9 15.4 13.2 79 2.1 NE 13 19 7 10 1018.9 1017.0 11.8
23/02:30am 16.7 15.2 13.0 79 2.1 NNE 13 17 7 9 1019.2 1017.3 11.6
23/02:00am 16.8 14.9 13.1 79 2.1 NE 15 20 8 11 1019.2 1017.3 11.6
23/01:30am 17.0 14.8 13.3 79 2.1 NE 17 24 9 13 1019.5 1017.5 11.2
23/01:00am 17.1 15.3 13.4 79 2.1 NNE 15 20 8 11 1019.8 1017.9 10.4
23/12:38am 17.2 16.2 13.5 79 2.1 NE 11 17 6 9 1020.1 1018.2 10.0
23/12:30am 17.2 16.6 13.5 79 2.1 NE 9 13 5 7 1020.1 1018.2 9.8
23/12:27am 17.2 16.6 13.5 79 2.1 NE 9 13 5 7 1020.2 1018.3 9.6
23/12:00am 17.3 16.7 13.6 79 2.1 NE 9 11 5 6 1020.2 1018.3 8.2
 
Date/Time
WST
Temp
°C
App
Temp
°C
Dew
Point
Rel
Hum
%
Delta-T
°C
Wind Press
QNH
hPa
Press
MSL
hPa
Rain
since 9 am
mm
Dir
 
Spd
km/h
Gust
km/h
Spd
kts
Gust
kts
22/11:30pm 17.4 16.9 13.7 79 2.2 ENE 9 11 5 6 1020.4 1018.5 7.6
22/11:26pm 17.4 16.9 13.7 79 2.2 NE 9 11 5 6 1020.3 1018.4 7.4
22/11:12pm 17.5 17.3 13.6 78 2.3 NE 7 11 4 6 1020.4 1018.5 6.8
22/11:00pm 17.5 16.9 13.6 78 2.3 NNE 9 13 5 7 1020.4 1018.5 5.6
22/10:41pm 17.5 16.9 13.6 78 2.3 S 9 15 5 8 1020.9 1019.0 3.4
22/10:39pm 17.5 16.6 13.6 78 2.3 SSW 11 15 6 8 1020.8 1018.9 3.4
22/10:30pm 17.4 15.7 13.5 78 2.3 SW 15 22 8 12 1020.9 1019.0 2.8
22/10:00pm 17.8 16.5 13.7 77 2.4 NE 13 17 7 9 1019.9 1018.0 2.2
22/09:46pm 17.7 16.8 13.6 77 2.4 NE 11 13 6 7 1020.1 1018.2 2.2
22/09:33pm 17.6 17.0 13.5 77 2.4 NE 9 13 5 7 1020.0 1018.1 2.0
22/09:30pm 17.6 16.9 13.3 76 2.5 NNE 9 13 5 7 1020.1 1018.2 1.6
22/09:00pm 17.9 17.6 13.2 74 2.7 NE 7 11 4 6 1020.1 1018.2 1.2
22/08:30pm 18.1 17.4 13.2 73 2.8 NE 9 13 5 7 1020.2 1018.3 1.2
22/08:00pm 18.1 17.8 13.2 73 2.8 NE 7 9 4 5 1020.2 1018.3 1.2
22/07:30pm 17.9 17.2 13.2 74 2.7 ENE 9 13 5 7 1019.8 1017.9 1.2
22/07:00pm 18.3 17.6 13.2 72 2.9 ENE 9 13 5 7 1019.6 1017.6 1.2
22/06:30pm 18.7 17.6 13.1 70 3.2 NE 11 15 6 8 1019.6 1017.6 1.2
22/06:00pm 18.9 17.4 13.1 69 3.4 NE 13 17 7 9 1019.5 1017.5 1.2
22/05:30pm 19.2 17.6 12.9 67 3.6 NE 13 17 7 9 1019.5 1017.5 1.2
22/05:00pm 19.6 17.2 12.8 65 3.9 NE 17 22 9 12 1019.0 1017.1 1.2
22/04:30pm 20.0 17.6 12.7 63 4.2 NE 17 22 9 12 1019.2 1017.3 1.2
22/04:00pm 20.4 18.1 12.9 62 4.3 NE 17 26 9 14 1019.0 1017.1 1.2
22/03:30pm 20.8 18.4 12.8 60 4.6 NE 17 24 9 13 1018.9 1017.0 1.2
22/03:00pm 21.3 19.6 13.7 62 4.5 NE 15 20 8 11 1019.0 1017.1 1.2
22/02:30pm 20.6 19.0 14.0 66 3.9 NE 15 19 8 10 1019.3 1017.4 1.2
22/02:05pm 20.0 19.1 13.7 67 3.7 NE 11 17 6 9 1019.6 1017.6 1.2
22/02:00pm 20.1 19.0 14.2 69 3.5 ENE 13 20 7 11 1019.6 1017.6 1.2
22/01:30pm 19.3 18.9 14.1 72 3.1 NE 9 13 5 7 1020.0 1018.1 1.0
22/01:00pm 18.8 17.8 13.4 71 3.1 NE 11 17 6 9 1020.8 1018.9 0.6
22/12:51pm 19.0 17.7 13.6 71 3.2 NE 13 19 7 10 1020.5 1018.6 0.6
22/12:30pm 19.3 17.6 13.7 70 3.3 ENE 15 20 8 11 1020.6 1018.7 0.6
22/12:06pm 18.9 17.2 13.7 72 3.0 NE 15 20 8 11 1021.0 1019.1 0.6
22/12:00pm 18.8 17.2 13.9 73 2.9 NE 15 20 8 11 1021.1 1019.2 0.6
22/11:30am 18.4 16.3 13.7 74 2.7 NE 17 22 9 12 1021.7 1019.8 0.6
22/11:10am 18.1 17.3 14.0 77 2.4 NE 11 17 6 9 1021.9 1020.0 0.6
22/11:00am 17.7 17.1 13.6 77 2.4 NE 9 15 5 8 1022.1 1020.2 0.6
22/10:30am 17.5 18.1 13.0 75 2.6 N 2 9 1 5 1022.6 1020.7 0.4
22/10:00am 17.2 16.4 12.9 76 2.5 NNW 9 11 5 6 1022.9 1021.0 0.2
22/09:32am 17.2 16.7 12.7 75 2.6 N 7 11 4 6 1022.8 1020.9 0.0
22/09:30am 17.2 16.7 12.7 75 2.6 NNE 7 11 4 6 1022.7 1020.8 0.0
22/09:00am 17.1 15.8 12.6 75 2.6 ENE 11 13 6 7 1022.0 1020.1 9.8
22/08:30am 16.8 15.9 12.7 77 2.3 NE 9 15 5 8 1022.0 1020.1 9.8
22/08:00am 16.1 15.2 12.5 79 2.0 ENE 9 13 5 7 1022.0 1020.1 9.8
22/07:32am 15.8 15.7 12.2 79 2.0 NE 4 11 2 6 1021.8 1019.9 9.8
22/07:30am 15.8 15.7 12.2 79 2.0 NE 4 9 2 5 1021.7 1019.8 9.8
22/07:00am 15.7 14.6 12.1 79 2.0 NE 9 13 5 7 1021.6 1019.7 9.6
22/06:55am 15.7 14.3 12.1 79 2.0 NE 11 15 6 8 1021.3 1019.4 9.6
22/06:30am 15.7 15.0 12.1 79 2.0 NNE 7 11 4 6 1021.5 1019.6 9.4
22/06:09am 15.7 14.6 12.1 79 2.0 NNW 9 11 5 6 1021.8 1019.9 9.4
22/06:00am 15.6 14.9 12.0 79 2.0 N 7 11 4 6 1021.6 1019.7 9.2
22/05:32am 15.6 14.9 12.0 79 2.0 NE 7 11 4 6 1020.8 1018.9 9.2
22/05:30am 15.6 14.5 12.0 79 2.0 NE 9 11 5 6 1020.7 1018.8 9.2
22/05:00am 15.6 14.9 12.0 79 2.0 N 7 11 4 6 1021.0 1019.1 8.6
22/04:30am 15.5 15.7 11.9 79 2.0 NNW 2 7 1 4 1020.7 1018.8 8.6
22/04:00am 15.4 14.8 11.8 79 2.0 WNW 6 7 3 4 1020.8 1018.9 8.6
22/03:41am 15.4 14.8 11.8 79 2.0 WNW 6 9 3 5 1020.6 1018.7 8.6
22/03:30am 15.4 15.9 11.6 78 2.1 CALM 0 0 0 0 1020.7 1018.8 8.2
22/03:27am 15.4 15.9 11.6 78 2.1 CALM 0 0 0 0 1020.7 1018.8 8.2
22/03:06am 15.4 15.1 11.6 78 2.1 WNW 4 7 2 4 1020.6 1018.7 7.2
22/03:00am 15.4 14.8 11.6 78 2.1 NW 6 7 3 4 1020.7 1018.8 7.2
22/02:30am 15.3 15.4 11.5 78 2.1 NNE 2 9 1 5 1020.3 1018.4 7.0
22/02:00am 15.3 14.6 11.5 78 2.1 NNE 6 11 3 6 1020.7 1018.8 7.0
22/01:45am 15.3 14.0 11.3 77 2.2 NNE 9 11 5 6 1020.8 1018.9 7.0
22/01:30am 15.3 14.6 11.5 78 2.1 N 6 9 3 5 1021.1 1019.2 7.0
22/01:18am 15.2 13.9 11.4 78 2.1 N 9 11 5 6 1020.9 1019.0 7.0
22/01:00am 15.3 14.4 11.5 78 2.1 N 7 9 4 5 1021.1 1019.2 7.0
22/12:30am 15.4 14.6 11.8 79 2.0 NNE 7 11 4 6 1021.0 1019.1 7.0
22/12:15am 15.3 13.7 11.7 79 2.0 NE 11 15 6 8 1020.9 1019.0 7.0
22/12:00am 15.2 14.4 11.6 79 2.0 NE 7 11 4 6 1021.0 1019.1 7.0
 
Date/Time
WST
Temp
°C
App
Temp
°C
Dew
Point
Rel
Hum
%
Delta-T
°C
Wind Press
QNH
hPa
Press
MSL
hPa
Rain
since 9 am
mm
Dir
 
Spd
km/h
Gust
km/h
Spd
kts
Gust
kts
21/11:50pm 15.2 14.0 11.6 79 2.0 ENE 9 13 5 7 1021.0 1019.1 7.0
21/11:30pm 15.3 13.7 11.7 79 2.0 ENE 11 19 6 10 1021.3 1019.4 7.0
21/11:00pm 15.3 13.4 11.7 79 2.0 NE 13 17 7 9 1022.1 1020.2 7.0
21/10:50pm 15.3 13.4 11.7 79 2.0 NE 13 17 7 9 1022.2 1020.3 6.8
21/10:30pm 15.2 13.6 11.6 79 2.0 NE 11 17 6 9 1022.4 1020.5 6.6
21/10:10pm 15.1 13.5 11.5 79 2.0 NNE 11 15 6 8 1022.6 1020.7 6.0
21/10:00pm 15.0 13.0 11.4 79 2.0 N 13 15 7 8 1022.8 1020.9 6.0
21/09:49pm 15.0 12.9 11.2 78 2.1 N 13 19 7 10 1022.7 1020.8 4.8
21/09:32pm 15.2 12.3 11.0 76 2.3 NNW 17 26 9 14 1022.7 1020.8 1.6
21/09:30pm 15.3 12.4 10.9 75 2.4 NNW 17 22 9 12 1022.8 1020.9 0.8
21/09:21pm 15.6 13.1 11.0 74 2.5 N 15 24 8 13 1022.7 1020.8 0.0
21/09:00pm 15.9 14.4 10.4 70 3.0 NE 9 15 5 8 1022.0 1020.1 0.0
21/08:30pm 16.1 13.7 10.0 67 3.3 NNE 13 20 7 11 1021.6 1019.7 0.0
21/08:00pm 16.5 13.5 9.4 63 3.8 NNE 15 22 8 12 1021.6 1019.7 0.0
21/07:30pm 17.3 13.0 9.2 59 4.3 N 22 32 12 17 1021.8 1019.9 0.0
21/07:00pm 17.9 13.1 8.7 55 4.9 N 24 33 13 18 1022.0 1020.1 0.0
21/06:30pm 18.6 14.9 8.0 50 5.6 NNE 17 28 9 15 1021.2 1019.3 0.0
21/06:00pm 19.3 14.2 7.7 47 6.1 NNE 24 33 13 18 1020.5 1018.6 0.0
21/05:30pm 21.1 16.1 6.6 39 7.5 NNE 22 30 12 16 1020.5 1018.6 0.0
21/05:00pm 22.6 17.9 6.0 34 8.6 NE 20 30 11 16 1020.1 1018.2 0.0
21/04:30pm 23.2 18.4 5.6 32 9.1 NE 20 32 11 17 1019.9 1018.0 0.0
21/04:00pm 23.3 18.0 5.2 31 9.3 NE 22 32 12 17 1019.9 1018.0 0.0
21/03:30pm 23.5 18.2 4.9 30 9.5 NE 22 32 12 17 1019.9 1018.0 0.0
21/03:00pm 23.4 17.7 4.9 30 9.4 NE 24 32 13 17 1019.8 1017.9 0.0
21/02:30pm 23.5 18.2 4.9 30 9.5 NE 22 33 12 18 1020.1 1018.2 0.0
21/02:00pm 23.0 17.2 4.5 30 9.3 NE 24 32 13 17 1020.4 1018.5 0.0
21/01:30pm 23.2 17.8 4.7 30 9.4 NE 22 33 12 18 1020.4 1018.5 0.0
21/01:00pm 22.9 17.1 4.4 30 9.3 NE 24 37 13 20 1020.8 1018.9 0.0
21/12:30pm 22.8 17.5 4.8 31 9.2 ENE 22 32 12 17 1021.3 1019.4 0.0
21/12:00pm 21.9 16.1 4.5 32 8.7 ENE 24 35 13 19 1021.8 1019.9 0.0
21/11:30am 21.1 16.1 4.6 34 8.3 ENE 20 30 11 16 1022.2 1020.3 0.0
21/11:00am 19.9 15.1 4.4 36 7.6 E 19 28 10 15 1022.9 1021.0 0.0
21/10:30am 19.0 13.2 4.4 38 7.2 ENE 24 35 13 19 1023.6 1021.7 0.0
21/10:00am 18.8 12.7 4.6 39 7.0 ENE 26 33 14 18 1023.5 1021.6 0.0
21/09:30am 17.8 11.2 4.4 41 6.5 E 28 35 15 19 1023.5 1021.6 0.0
21/09:00am 17.0 11.6 4.3 43 6.1 E 22 32 12 17 1023.8 1021.9 0.0
21/08:30am 15.7 10.2 3.8 45 5.6 E 22 30 12 16 1023.9 1022.0 0.0
21/08:00am 15.2 10.1 4.0 47 5.3 E 20 28 11 15 1023.8 1021.9 0.0
21/07:30am 14.9 10.7 4.0 48 5.2 ESE 15 32 8 17 1023.6 1021.7 0.0
21/07:00am 14.1 10.8 4.4 52 4.6 ESE 11 15 6 8 1023.1 1021.3 0.0
21/06:30am 13.6 10.3 4.5 54 4.3 ESE 11 17 6 9 1022.6 1020.7 0.0
21/06:00am 13.8 10.1 4.7 54 4.3 ESE 13 19 7 10 1022.2 1020.3 0.0
21/05:30am 14.1 10.5 4.9 54 4.4 ESE 13 19 7 10 1021.8 1019.9 0.0
21/05:00am 14.4 10.4 5.0 53 4.5 ESE 15 19 8 10 1021.5 1019.6 0.0
21/04:30am 15.0 11.4 5.0 51 4.8 ESE 13 19 7 10 1021.6 1019.7 0.0
21/04:00am 15.5 11.9 5.1 50 5.0 ESE 13 20 7 11 1021.3 1019.4 0.0
21/03:30am 15.9 12.0 5.2 49 5.2 ESE 15 24 8 13 1021.1 1019.2 0.0
21/03:00am 16.5 12.7 5.8 49 5.3 ESE 15 26 8 14 1021.1 1019.2 0.0
21/02:30am 16.6 13.6 5.9 49 5.3 ESE 11 15 6 8 1021.1 1019.2 0.0
21/02:00am 17.1 14.1 6.0 48 5.5 ESE 11 19 6 10 1021.2 1019.3 0.0
21/01:30am 17.6 13.5 6.2 47 5.8 E 17 26 9 14 1021.1 1019.2 0.0
21/01:00am 17.0 13.6 5.9 48 5.5 ESE 13 17 7 9 1021.5 1019.6 0.0
21/12:30am 16.8 14.6 6.0 49 5.4 ESE 7 15 4 8 1021.5 1019.6 0.0
21/12:00am 17.1 14.5 6.0 48 5.5 ESE 9 13 5 7 1021.6 1019.7 0.0
 
Date/Time
WST
Temp
°C
App
Temp
°C
Dew
Point
Rel
Hum
%
Delta-T
°C
Wind Press
QNH
hPa
Press
MSL
hPa
Rain
since 9 am
mm
Dir
 
Spd
km/h
Gust
km/h
Spd
kts
Gust
kts
20/11:30pm 17.2 14.9 5.8 47 5.7 E 7 11 4 6 1021.8 1019.9 0.0
20/11:00pm 17.8 15.2 6.0 46 5.9 E 9 13 5 7 1021.9 1020.0 0.0
20/10:30pm 18.1 14.8 6.3 46 6.0 E 13 17 7 9 1021.9 1020.0 0.0
20/10:00pm 18.6 14.9 6.4 45 6.2 E 15 20 8 11 1022.0 1020.1 0.0
20/09:30pm 18.8 15.9 6.3 44 6.4 E 11 17 6 9 1022.4 1020.5 0.0

Other Formats:

Comma delimited format used in spreadsheet applications
http://www.bom.gov.au/fwo/IDW60801/IDW60801.94317.axf

JavaScript Object Notation format (JSON) in row-major order
http://www.bom.gov.au/fwo/IDW60801/IDW60801.94317.json